Cape York — VRXE9 — position and weather

sailwx.info

Track history (hours):
 
Tides and Currents Weather Stations Pressure Air Temp Water Temp Dewpoint Dewpoint Depression Visibility Wind Speed Wind Dir Waves Ship Positions

Cape York

Last reported at 2015-Apr-17 12:04 UTC. Time now 2015-Aug-05 10:31 UTC.
Position N 39°36' W 073°52'.
Warning: this ship's position is months out of date.

Length 170 m; draft 9.1 m.

Type: Cargo ship. MMSI: 477924000.

Date/timePositionNaut miles runAvg speedWind from/ knotsBaromVisibWave heightAir tempDewpointWater temp
2015-Apr-17 12:04N 39°36' W 073°52'912.5
2015-Apr-17 11:19N 39°45' W 073°52'46 9.6
2015-Apr-17 06:32N 40°31' W 073°59'1110.8
2015-Apr-17 05:33N 40°41' W 074°02'1211.8
2015-Apr-17 04:33N 40°52' W 073°56'  
2015-Apr-10 17:24N 40°53' W 073°56'911.2
2015-Apr-10 16:34N 40°45' W 074°01'1110.9
2015-Apr-10 15:33N 40°34' W 074°02'149 3.9
2015-Apr-09 01:28N 38°52' W 076°24'1513.4
2015-Apr-09 00:22N 39°07' W 076°24'7 8.2
2015-Apr-08 23:33N 39°12' W 076°29'0 0.5
2015-Apr-08 22:33N 39°13' W 076°29'0 0.0
2015-Apr-08 21:30N 39°13' W 076°29'0 0.0
2015-Apr-08 20:30N 39°13' W 076°29'0 0.0
2015-Apr-08 19:30N 39°13' W 076°29'0 0.0
2015-Apr-08 17:18N 39°13' W 076°29'0 0.0
2015-Apr-08 16:30N 39°13' W 076°29'0 0.0
2015-Apr-08 15:12N 39°13' W 076°29'0 0.0
2015-Apr-08 11:32N 39°13' W 076°29'0 0.0
2015-Apr-08 09:27N 39°13' W 076°29'0 0.0
2015-Apr-08 03:26N 39°13' W 076°29'0 0.0
2015-Apr-08 02:32N 39°13' W 076°29'0 0.0
2015-Apr-08 01:32N 39°13' W 076°29'0 0.0
2015-Apr-08 00:32N 39°13' W 076°29'0 0.0
2015-Apr-07 22:23N 39°13' W 076°29'0 0.0
2015-Apr-07 21:29N 39°13' W 076°29'0 0.0
2015-Apr-07 20:32N 39°13' W 076°29'0 0.0
2015-Apr-07 19:29N 39°13' W 076°29'0 0.0
2015-Apr-07 18:26N 39°13' W 076°29'0 0.0
2015-Apr-07 17:20N 39°13' W 076°29'0 0.0
2015-Apr-07 16:32N 39°13' W 076°29'0 0.0
2015-Apr-07 15:26N 39°13' W 076°29'0 0.0
2015-Apr-07 14:26N 39°13' W 076°29'0 0.0
2015-Apr-07 13:32N 39°13' W 076°29'0 0.0
2015-Apr-07 12:32N 39°13' W 076°29'  
Track history (hours):
 
Tides and Currents Weather Stations Pressure Air Temp Water Temp Dewpoint Dewpoint Depression Visibility Wind Speed Wind Dir Waves Ship Positions

Cape York

Last reported at 2015-Apr-17 12:04 UTC. Time now 2015-Aug-05 10:31 UTC.
Position N 39°36' W 073°52'.
Warning: this ship's position is months out of date.

Length 170 m; draft 9.1 m.

Type: Cargo ship. MMSI: 477924000.

Date/timePositionNaut miles runAvg speedWind from/ knotsBaromVisibWave heightAir tempDewpointWater temp
2015-Apr-17 12:04N 39°36' W 073°52'912.5
2015-Apr-17 11:19N 39°45' W 073°52'46 9.6
2015-Apr-17 06:32N 40°31' W 073°59'1110.8
2015-Apr-17 05:33N 40°41' W 074°02'1211.8
2015-Apr-17 04:33N 40°52' W 073°56'  
2015-Apr-10 17:24N 40°53' W 073°56'911.2
2015-Apr-10 16:34N 40°45' W 074°01'1110.9
2015-Apr-10 15:33N 40°34' W 074°02'149 3.9
2015-Apr-09 01:28N 38°52' W 076°24'1513.4
2015-Apr-09 00:22N 39°07' W 076°24'7 8.2
2015-Apr-08 23:33N 39°12' W 076°29'0 0.5
2015-Apr-08 22:33N 39°13' W 076°29'0 0.0
2015-Apr-08 21:30N 39°13' W 076°29'0 0.0
2015-Apr-08 20:30N 39°13' W 076°29'0 0.0
2015-Apr-08 19:30N 39°13' W 076°29'0 0.0
2015-Apr-08 17:18N 39°13' W 076°29'0 0.0
2015-Apr-08 16:30N 39°13' W 076°29'0 0.0
2015-Apr-08 15:12N 39°13' W 076°29'0 0.0
2015-Apr-08 11:32N 39°13' W 076°29'0 0.0
2015-Apr-08 09:27N 39°13' W 076°29'0 0.0
2015-Apr-08 03:26N 39°13' W 076°29'0 0.0
2015-Apr-08 02:32N 39°13' W 076°29'0 0.0
2015-Apr-08 01:32N 39°13' W 076°29'0 0.0
2015-Apr-08 00:32N 39°13' W 076°29'0 0.0
2015-Apr-07 22:23N 39°13' W 076°29'0 0.0
2015-Apr-07 21:29N 39°13' W 076°29'0 0.0
2015-Apr-07 20:32N 39°13' W 076°29'0 0.0
2015-Apr-07 19:29N 39°13' W 076°29'0 0.0
2015-Apr-07 18:26N 39°13' W 076°29'0 0.0
2015-Apr-07 17:20N 39°13' W 076°29'0 0.0
2015-Apr-07 16:32N 39°13' W 076°29'0 0.0
2015-Apr-07 15:26N 39°13' W 076°29'0 0.0
2015-Apr-07 14:26N 39°13' W 076°29'0 0.0
2015-Apr-07 13:32N 39°13' W 076°29'0 0.0
2015-Apr-07 12:32N 39°13' W 076°29'  

Dump ship's entire track history